sensor_id;sensor_type;location;lat;lon;timestamp;temperature;humidity
64817;DHT22;69411;45.656;11.740;2024-02-21T00:01:04;9.20;72.20
64817;DHT22;69411;45.656;11.740;2024-02-21T00:03:31;9.20;72.20
64817;DHT22;69411;45.656;11.740;2024-02-21T00:05:57;9.20;71.90
64817;DHT22;69411;45.656;11.740;2024-02-21T00:08:22;9.20;71.80
64817;DHT22;69411;45.656;11.740;2024-02-21T00:10:48;9.20;71.90
64817;DHT22;69411;45.656;11.740;2024-02-21T00:13:15;9.20;71.80
64817;DHT22;69411;45.656;11.740;2024-02-21T00:15:41;9.20;71.40
64817;DHT22;69411;45.656;11.740;2024-02-21T00:18:07;9.20;71.10
64817;DHT22;69411;45.656;11.740;2024-02-21T00:20:33;9.20;71.10
64817;DHT22;69411;45.656;11.740;2024-02-21T00:22:59;9.10;71.10
64817;DHT22;69411;45.656;11.740;2024-02-21T00:25:24;9.20;71.10
64817;DHT22;69411;45.656;11.740;2024-02-21T00:27:50;9.10;71.00
64817;DHT22;69411;45.656;11.740;2024-02-21T00:30:16;9.10;70.70
64817;DHT22;69411;45.656;11.740;2024-02-21T00:32:42;9.10;70.70
64817;DHT22;69411;45.656;11.740;2024-02-21T00:35:08;9.10;70.40
64817;DHT22;69411;45.656;11.740;2024-02-21T00:37:34;9.10;70.20
64817;DHT22;69411;45.656;11.740;2024-02-21T00:40:00;9.00;70.00
64817;DHT22;69411;45.656;11.740;2024-02-21T00:42:26;8.90;70.00
64817;DHT22;69411;45.656;11.740;2024-02-21T00:44:52;8.90;70.00
64817;DHT22;69411;45.656;11.740;2024-02-21T00:47:18;8.90;70.00
64817;DHT22;69411;45.656;11.740;2024-02-21T00:49:44;8.80;70.10
64817;DHT22;69411;45.656;11.740;2024-02-21T00:52:10;8.90;69.90
64817;DHT22;69411;45.656;11.740;2024-02-21T00:54:36;8.80;69.70
64817;DHT22;69411;45.656;11.740;2024-02-21T00:57:01;8.90;69.80
64817;DHT22;69411;45.656;11.740;2024-02-21T00:59:27;8.90;69.90
64817;DHT22;69411;45.656;11.740;2024-02-21T01:01:53;8.90;69.60
64817;DHT22;69411;45.656;11.740;2024-02-21T01:04:19;8.90;69.70
64817;DHT22;69411;45.656;11.740;2024-02-21T01:06:45;8.90;69.70
64817;DHT22;69411;45.656;11.740;2024-02-21T01:09:11;8.90;69.70
64817;DHT22;69411;45.656;11.740;2024-02-21T01:11:37;8.90;69.70
64817;DHT22;69411;45.656;11.740;2024-02-21T01:14:03;8.90;69.60
64817;DHT22;69411;45.656;11.740;2024-02-21T01:16:29;9.00;69.60
64817;DHT22;69411;45.656;11.740;2024-02-21T01:18:55;9.00;69.50
64817;DHT22;69411;45.656;11.740;2024-02-21T01:21:21;9.00;69.40
64817;DHT22;69411;45.656;11.740;2024-02-21T01:23:47;9.00;69.30
64817;DHT22;69411;45.656;11.740;2024-02-21T01:26:13;8.90;69.30
64817;DHT22;69411;45.656;11.740;2024-02-21T01:28:41;8.90;69.20
64817;DHT22;69411;45.656;11.740;2024-02-21T01:31:07;8.80;69.30
64817;DHT22;69411;45.656;11.740;2024-02-21T01:33:33;8.80;69.20
64817;DHT22;69411;45.656;11.740;2024-02-21T01:36:05;8.70;69.30
64817;DHT22;69411;45.656;11.740;2024-02-21T01:38:34;8.70;69.40
64817;DHT22;69411;45.656;11.740;2024-02-21T01:41:00;8.70;69.30
64817;DHT22;69411;45.656;11.740;2024-02-21T01:43:26;8.70;69.20
64817;DHT22;69411;45.656;11.740;2024-02-21T01:45:54;8.70;69.10
64817;DHT22;69411;45.656;11.740;2024-02-21T01:48:22;8.70;68.50
64817;DHT22;69411;45.656;11.740;2024-02-21T01:50:49;8.70;68.40
64817;DHT22;69411;45.656;11.740;2024-02-21T01:53:29;8.70;68.10
64817;DHT22;69411;45.656;11.740;2024-02-21T01:55:56;8.70;68.20
64817;DHT22;69411;45.656;11.740;2024-02-21T01:58:22;8.70;68.20
64817;DHT22;69411;45.656;11.740;2024-02-21T02:00:50;8.70;68.20
64817;DHT22;69411;45.656;11.740;2024-02-21T02:03:17;8.70;68.20
64817;DHT22;69411;45.656;11.740;2024-02-21T02:05:46;8.70;68.10
64817;DHT22;69411;45.656;11.740;2024-02-21T02:08:16;8.80;68.10
64817;DHT22;69411;45.656;11.740;2024-02-21T02:10:43;8.90;67.80
64817;DHT22;69411;45.656;11.740;2024-02-21T02:13:09;8.90;67.70
64817;DHT22;69411;45.656;11.740;2024-02-21T02:15:46;8.90;67.60
64817;DHT22;69411;45.656;11.740;2024-02-21T02:18:12;9.00;67.30
64817;DHT22;69411;45.656;11.740;2024-02-21T02:20:39;9.00;67.00
64817;DHT22;69411;45.656;11.740;2024-02-21T02:23:30;9.00;66.90
64817;DHT22;69411;45.656;11.740;2024-02-21T02:25:59;9.00;67.00
64817;DHT22;69411;45.656;11.740;2024-02-21T02:28:28;9.10;66.40
64817;DHT22;69411;45.656;11.740;2024-02-21T02:30:54;9.00;66.20
64817;DHT22;69411;45.656;11.740;2024-02-21T02:33:21;9.00;66.40
64817;DHT22;69411;45.656;11.740;2024-02-21T02:35:47;8.90;66.50
64817;DHT22;69411;45.656;11.740;2024-02-21T02:38:13;8.90;66.30
64817;DHT22;69411;45.656;11.740;2024-02-21T02:40:39;8.90;66.30
64817;DHT22;69411;45.656;11.740;2024-02-21T02:43:06;8.90;66.30
64817;DHT22;69411;45.656;11.740;2024-02-21T02:45:32;8.90;66.40
64817;DHT22;69411;45.656;11.740;2024-02-21T02:47:59;8.90;66.50
64817;DHT22;69411;45.656;11.740;2024-02-21T02:50:26;8.90;66.40
64817;DHT22;69411;45.656;11.740;2024-02-21T02:52:53;8.90;66.40
64817;DHT22;69411;45.656;11.740;2024-02-21T02:55:20;8.90;66.40
64817;DHT22;69411;45.656;11.740;2024-02-21T02:57:46;8.80;66.40
64817;DHT22;69411;45.656;11.740;2024-02-21T03:00:13;8.80;66.30
64817;DHT22;69411;45.656;11.740;2024-02-21T03:02:41;8.70;66.30
64817;DHT22;69411;45.656;11.740;2024-02-21T03:05:18;8.70;66.40
64817;DHT22;69411;45.656;11.740;2024-02-21T03:07:45;8.70;66.70
64817;DHT22;69411;45.656;11.740;2024-02-21T03:10:11;8.60;66.50
64817;DHT22;69411;45.656;11.740;2024-02-21T03:12:38;8.60;66.30
64817;DHT22;69411;45.656;11.740;2024-02-21T03:15:04;8.60;66.40
64817;DHT22;69411;45.656;11.740;2024-02-21T03:17:31;8.50;65.70
64817;DHT22;69411;45.656;11.740;2024-02-21T03:19:57;8.60;65.70
64817;DHT22;69411;45.656;11.740;2024-02-21T03:22:24;8.60;65.50
64817;DHT22;69411;45.656;11.740;2024-02-21T03:24:50;8.60;65.30
64817;DHT22;69411;45.656;11.740;2024-02-21T03:27:16;8.70;65.20
64817;DHT22;69411;45.656;11.740;2024-02-21T03:29:43;8.80;64.80
64817;DHT22;69411;45.656;11.740;2024-02-21T03:32:09;8.80;65.20
64817;DHT22;69411;45.656;11.740;2024-02-21T03:34:35;8.70;65.40
64817;DHT22;69411;45.656;11.740;2024-02-21T03:37:01;8.60;65.40
64817;DHT22;69411;45.656;11.740;2024-02-21T03:39:30;8.60;65.00
64817;DHT22;69411;45.656;11.740;2024-02-21T03:41:56;8.60;64.60
64817;DHT22;69411;45.656;11.740;2024-02-21T03:44:23;8.60;64.80
64817;DHT22;69411;45.656;11.740;2024-02-21T03:46:49;8.60;64.90
64817;DHT22;69411;45.656;11.740;2024-02-21T03:49:15;8.60;64.90
64817;DHT22;69411;45.656;11.740;2024-02-21T03:51:41;8.60;65.10
64817;DHT22;69411;45.656;11.740;2024-02-21T03:54:08;8.50;65.00
64817;DHT22;69411;45.656;11.740;2024-02-21T03:56:37;8.50;64.60
64817;DHT22;69411;45.656;11.740;2024-02-21T03:59:03;8.40;64.90
64817;DHT22;69411;45.656;11.740;2024-02-21T04:01:29;8.40;64.90
64817;DHT22;69411;45.656;11.740;2024-02-21T04:03:55;8.30;64.70
64817;DHT22;69411;45.656;11.740;2024-02-21T04:06:21;8.30;65.10
64817;DHT22;69411;45.656;11.740;2024-02-21T04:08:47;8.20;64.70
64817;DHT22;69411;45.656;11.740;2024-02-21T04:11:13;8.20;65.00
64817;DHT22;69411;45.656;11.740;2024-02-21T04:13:39;8.20;65.20
64817;DHT22;69411;45.656;11.740;2024-02-21T04:16:05;8.20;65.40
64817;DHT22;69411;45.656;11.740;2024-02-21T04:18:31;8.20;65.60
64817;DHT22;69411;45.656;11.740;2024-02-21T04:20:58;8.20;65.40
64817;DHT22;69411;45.656;11.740;2024-02-21T04:23:24;8.10;65.40
64817;DHT22;69411;45.656;11.740;2024-02-21T04:25:49;8.10;65.60
64817;DHT22;69411;45.656;11.740;2024-02-21T04:28:15;8.10;65.80
64817;DHT22;69411;45.656;11.740;2024-02-21T04:30:41;8.00;65.60
64817;DHT22;69411;45.656;11.740;2024-02-21T04:33:07;8.00;65.90
64817;DHT22;69411;45.656;11.740;2024-02-21T04:35:35;8.00;65.80
64817;DHT22;69411;45.656;11.740;2024-02-21T04:38:01;7.90;65.60
64817;DHT22;69411;45.656;11.740;2024-02-21T04:40:28;7.90;65.80
64817;DHT22;69411;45.656;11.740;2024-02-21T04:42:54;7.90;65.90
64817;DHT22;69411;45.656;11.740;2024-02-21T04:45:20;7.90;66.10
64817;DHT22;69411;45.656;11.740;2024-02-21T04:47:46;7.90;65.60
64817;DHT22;69411;45.656;11.740;2024-02-21T04:50:12;7.90;65.80
64817;DHT22;69411;45.656;11.740;2024-02-21T04:52:38;7.90;65.60
64817;DHT22;69411;45.656;11.740;2024-02-21T04:55:04;8.00;65.90
64817;DHT22;69411;45.656;11.740;2024-02-21T04:57:30;8.00;65.90
64817;DHT22;69411;45.656;11.740;2024-02-21T04:59:56;8.00;65.60
64817;DHT22;69411;45.656;11.740;2024-02-21T05:02:22;8.00;65.60
64817;DHT22;69411;45.656;11.740;2024-02-21T05:04:50;8.00;65.80
64817;DHT22;69411;45.656;11.740;2024-02-21T05:07:16;8.00;65.70
64817;DHT22;69411;45.656;11.740;2024-02-21T05:09:42;8.00;65.40
64817;DHT22;69411;45.656;11.740;2024-02-21T05:12:08;7.90;65.70
64817;DHT22;69411;45.656;11.740;2024-02-21T05:14:34;8.00;65.90
64817;DHT22;69411;45.656;11.740;2024-02-21T05:17:00;8.00;65.90
64817;DHT22;69411;45.656;11.740;2024-02-21T05:19:26;8.00;65.90
64817;DHT22;69411;45.656;11.740;2024-02-21T05:21:52;8.00;65.90
64817;DHT22;69411;45.656;11.740;2024-02-21T05:24:18;8.00;65.90
64817;DHT22;69411;45.656;11.740;2024-02-21T05:26:44;8.00;65.80
64817;DHT22;69411;45.656;11.740;2024-02-21T05:29:11;8.00;65.80
64817;DHT22;69411;45.656;11.740;2024-02-21T05:31:55;8.00;65.70
64817;DHT22;69411;45.656;11.740;2024-02-21T05:34:24;8.10;65.70
64817;DHT22;69411;45.656;11.740;2024-02-21T05:36:51;8.10;65.70
64817;DHT22;69411;45.656;11.740;2024-02-21T05:39:18;8.10;65.50
64817;DHT22;69411;45.656;11.740;2024-02-21T05:41:44;8.20;65.30
64817;DHT22;69411;45.656;11.740;2024-02-21T05:44:10;8.20;65.20
64817;DHT22;69411;45.656;11.740;2024-02-21T05:46:36;8.20;65.00
64817;DHT22;69411;45.656;11.740;2024-02-21T05:49:02;8.30;64.60
64817;DHT22;69411;45.656;11.740;2024-02-21T05:54:24;8.30;64.30
64817;DHT22;69411;45.656;11.740;2024-02-21T05:56:50;8.40;64.20
64817;DHT22;69411;45.656;11.740;2024-02-21T05:59:18;8.40;64.10
64817;DHT22;69411;45.656;11.740;2024-02-21T06:01:44;8.50;63.60
64817;DHT22;69411;45.656;11.740;2024-02-21T06:04:10;8.60;63.60
64817;DHT22;69411;45.656;11.740;2024-02-21T06:06:36;8.60;63.00
64817;DHT22;69411;45.656;11.740;2024-02-21T06:09:02;8.70;62.80
64817;DHT22;69411;45.656;11.740;2024-02-21T06:11:30;8.80;62.80
64817;DHT22;69411;45.656;11.740;2024-02-21T06:13:59;8.80;62.20
64817;DHT22;69411;45.656;11.740;2024-02-21T06:16:25;8.90;61.60
64817;DHT22;69411;45.656;11.740;2024-02-21T06:18:51;8.90;61.40
64817;DHT22;69411;45.656;11.740;2024-02-21T06:21:17;8.90;60.80
64817;DHT22;69411;45.656;11.740;2024-02-21T06:23:43;9.00;60.40
64817;DHT22;69411;45.656;11.740;2024-02-21T06:26:09;9.00;59.40
64817;DHT22;69411;45.656;11.740;2024-02-21T06:28:35;9.10;59.40
64817;DHT22;69411;45.656;11.740;2024-02-21T06:31:01;9.20;58.40
64817;DHT22;69411;45.656;11.740;2024-02-21T06:33:27;9.20;58.30
64817;DHT22;69411;45.656;11.740;2024-02-21T06:35:53;9.30;58.40
64817;DHT22;69411;45.656;11.740;2024-02-21T06:38:19;9.40;58.30
64817;DHT22;69411;45.656;11.740;2024-02-21T06:40:45;9.40;58.60
64817;DHT22;69411;45.656;11.740;2024-02-21T06:43:17;9.50;58.20
64817;DHT22;69411;45.656;11.740;2024-02-21T06:45:44;9.60;58.10
64817;DHT22;69411;45.656;11.740;2024-02-21T06:48:13;9.60;57.40
64817;DHT22;69411;45.656;11.740;2024-02-21T06:50:40;9.70;57.90
64817;DHT22;69411;45.656;11.740;2024-02-21T06:53:06;9.90;58.30
64817;DHT22;69411;45.656;11.740;2024-02-21T06:55:32;10.00;57.90
64817;DHT22;69411;45.656;11.740;2024-02-21T06:57:57;10.20;56.70
64817;DHT22;69411;45.656;11.740;2024-02-21T07:00:23;10.40;55.70
64817;DHT22;69411;45.656;11.740;2024-02-21T07:02:51;10.60;55.00
64817;DHT22;69411;45.656;11.740;2024-02-21T07:05:17;10.80;54.70
64817;DHT22;69411;45.656;11.740;2024-02-21T07:07:43;10.90;53.60
64817;DHT22;69411;45.656;11.740;2024-02-21T07:10:09;11.20;53.50
64817;DHT22;69411;45.656;11.740;2024-02-21T07:12:37;11.30;53.20
64817;DHT22;69411;45.656;11.740;2024-02-21T07:15:07;11.50;54.00
64817;DHT22;69411;45.656;11.740;2024-02-21T07:17:33;11.80;53.70
64817;DHT22;69411;45.656;11.740;2024-02-21T07:19:59;11.90;53.40
64817;DHT22;69411;45.656;11.740;2024-02-21T07:22:25;12.10;52.40
64817;DHT22;69411;45.656;11.740;2024-02-21T07:24:51;12.30;52.40
64817;DHT22;69411;45.656;11.740;2024-02-21T07:27:17;12.40;52.30
64817;DHT22;69411;45.656;11.740;2024-02-21T07:29:43;12.60;52.10
64817;DHT22;69411;45.656;11.740;2024-02-21T07:32:13;12.80;52.30
64817;DHT22;69411;45.656;11.740;2024-02-21T07:34:39;13.00;52.00
64817;DHT22;69411;45.656;11.740;2024-02-21T07:37:05;13.20;51.80
64817;DHT22;69411;45.656;11.740;2024-02-21T07:39:31;13.40;51.40
64817;DHT22;69411;45.656;11.740;2024-02-21T07:41:56;13.50;51.10
64817;DHT22;69411;45.656;11.740;2024-02-21T07:44:34;13.70;50.90
64817;DHT22;69411;45.656;11.740;2024-02-21T07:47:20;13.80;50.90
64817;DHT22;69411;45.656;11.740;2024-02-21T07:49:46;13.90;51.00
64817;DHT22;69411;45.656;11.740;2024-02-21T07:52:12;13.90;51.10
64817;DHT22;69411;45.656;11.740;2024-02-21T07:54:38;13.90;51.10
64817;DHT22;69411;45.656;11.740;2024-02-21T07:57:04;13.80;50.60
64817;DHT22;69411;45.656;11.740;2024-02-21T07:59:30;13.70;50.70
64817;DHT22;69411;45.656;11.740;2024-02-21T08:01:56;13.70;50.90
64817;DHT22;69411;45.656;11.740;2024-02-21T08:04:23;13.70;51.30
64817;DHT22;69411;45.656;11.740;2024-02-21T08:06:53;13.80;51.50
64817;DHT22;69411;45.656;11.740;2024-02-21T08:09:22;13.90;51.80
64817;DHT22;69411;45.656;11.740;2024-02-21T08:11:49;13.90;51.80
64817;DHT22;69411;45.656;11.740;2024-02-21T08:14:17;13.90;51.20
64817;DHT22;69411;45.656;11.740;2024-02-21T08:16:43;13.90;51.70
64817;DHT22;69411;45.656;11.740;2024-02-21T08:19:10;14.00;51.40
64817;DHT22;69411;45.656;11.740;2024-02-21T08:21:38;14.00;50.90
64817;DHT22;69411;45.656;11.740;2024-02-21T08:24:05;14.00;50.70
64817;DHT22;69411;45.656;11.740;2024-02-21T08:26:30;13.90;50.90
64817;DHT22;69411;45.656;11.740;2024-02-21T08:28:57;13.90;51.10
64817;DHT22;69411;45.656;11.740;2024-02-21T08:31:26;14.00;51.40
64817;DHT22;69411;45.656;11.740;2024-02-21T08:34:00;14.00;51.10
64817;DHT22;69411;45.656;11.740;2024-02-21T08:36:33;14.10;50.90
64817;DHT22;69411;45.656;11.740;2024-02-21T08:38:59;14.20;51.80
64817;DHT22;69411;45.656;11.740;2024-02-21T08:41:26;14.30;51.60
64817;DHT22;69411;45.656;11.740;2024-02-21T08:43:53;14.40;51.40
64817;DHT22;69411;45.656;11.740;2024-02-21T08:46:23;14.60;51.40
64817;DHT22;69411;45.656;11.740;2024-02-21T08:48:51;14.70;51.20
64817;DHT22;69411;45.656;11.740;2024-02-21T08:51:17;14.80;50.00
64817;DHT22;69411;45.656;11.740;2024-02-21T08:53:45;14.90;50.20
64817;DHT22;69411;45.656;11.740;2024-02-21T08:56:11;15.00;50.20
64817;DHT22;69411;45.656;11.740;2024-02-21T08:58:39;15.10;50.00
64817;DHT22;69411;45.656;11.740;2024-02-21T09:01:06;15.20;49.70
64817;DHT22;69411;45.656;11.740;2024-02-21T09:03:39;15.30;50.10
64817;DHT22;69411;45.656;11.740;2024-02-21T09:06:06;15.40;49.80
64817;DHT22;69411;45.656;11.740;2024-02-21T09:08:33;15.50;49.90
64817;DHT22;69411;45.656;11.740;2024-02-21T09:11:02;15.60;49.60
64817;DHT22;69411;45.656;11.740;2024-02-21T09:13:28;15.70;50.10
64817;DHT22;69411;45.656;11.740;2024-02-21T09:15:55;15.80;49.80
64817;DHT22;69411;45.656;11.740;2024-02-21T09:18:21;15.90;49.90
64817;DHT22;69411;45.656;11.740;2024-02-21T09:20:47;15.90;48.90
64817;DHT22;69411;45.656;11.740;2024-02-21T09:23:14;15.90;49.50
64817;DHT22;69411;45.656;11.740;2024-02-21T09:25:40;16.00;49.90
64817;DHT22;69411;45.656;11.740;2024-02-21T09:28:06;16.10;49.60
64817;DHT22;69411;45.656;11.740;2024-02-21T09:30:32;16.20;49.30
64817;DHT22;69411;45.656;11.740;2024-02-21T09:32:58;16.20;48.90
64817;DHT22;69411;45.656;11.740;2024-02-21T09:35:26;16.30;48.90
64817;DHT22;69411;45.656;11.740;2024-02-21T09:37:53;16.30;49.10
64817;DHT22;69411;45.656;11.740;2024-02-21T09:40:20;16.40;48.50
64817;DHT22;69411;45.656;11.740;2024-02-21T09:42:47;16.40;48.60
64817;DHT22;69411;45.656;11.740;2024-02-21T09:45:21;16.40;48.50
64817;DHT22;69411;45.656;11.740;2024-02-21T09:50:17;16.50;48.80
64817;DHT22;69411;45.656;11.740;2024-02-21T09:52:44;16.50;48.80
64817;DHT22;69411;45.656;11.740;2024-02-21T09:55:11;16.60;48.50
64817;DHT22;69411;45.656;11.740;2024-02-21T09:57:39;16.60;48.40
64817;DHT22;69411;45.656;11.740;2024-02-21T10:00:06;16.70;49.00
64817;DHT22;69411;45.656;11.740;2024-02-21T10:02:35;16.70;49.00
64817;DHT22;69411;45.656;11.740;2024-02-21T10:05:01;16.80;48.70
64817;DHT22;69411;45.656;11.740;2024-02-21T10:07:30;16.80;48.10
64817;DHT22;69411;45.656;11.740;2024-02-21T10:10:04;16.80;47.90
64817;DHT22;69411;45.656;11.740;2024-02-21T10:12:30;16.90;47.70
64817;DHT22;69411;45.656;11.740;2024-02-21T10:15:06;16.90;46.70
64817;DHT22;69411;45.656;11.740;2024-02-21T10:17:32;16.90;46.60
64817;DHT22;69411;45.656;11.740;2024-02-21T10:20:08;16.90;46.70
64817;DHT22;69411;45.656;11.740;2024-02-21T10:22:35;16.90;47.00
64817;DHT22;69411;45.656;11.740;2024-02-21T10:25:12;16.90;46.90
64817;DHT22;69411;45.656;11.740;2024-02-21T10:27:39;16.90;46.90
64817;DHT22;69411;45.656;11.740;2024-02-21T10:30:12;16.90;45.90
64817;DHT22;69411;45.656;11.740;2024-02-21T10:32:52;16.90;46.40
64817;DHT22;69411;45.656;11.740;2024-02-21T10:35:32;17.00;46.00
64817;DHT22;69411;45.656;11.740;2024-02-21T10:37:59;17.10;46.10
64817;DHT22;69411;45.656;11.740;2024-02-21T10:40:28;17.10;47.20
64817;DHT22;69411;45.656;11.740;2024-02-21T10:42:59;17.20;46.80
64817;DHT22;69411;45.656;11.740;2024-02-21T10:45:35;17.20;46.20
64817;DHT22;69411;45.656;11.740;2024-02-21T10:48:14;17.30;45.60
64817;DHT22;69411;45.656;11.740;2024-02-21T10:51:03;17.30;46.30
64817;DHT22;69411;45.656;11.740;2024-02-21T10:58:52;17.20;45.20
64817;DHT22;69411;45.656;11.740;2024-02-21T11:01:18;17.30;45.10
64817;DHT22;69411;45.656;11.740;2024-02-21T11:03:46;17.40;45.60
64817;DHT22;69411;45.656;11.740;2024-02-21T11:06:14;17.40;46.40
64817;DHT22;69411;45.656;11.740;2024-02-21T11:08:41;17.40;45.10
64817;DHT22;69411;45.656;11.740;2024-02-21T11:11:07;17.40;45.90
64817;DHT22;69411;45.656;11.740;2024-02-21T11:13:36;17.40;46.40
64817;DHT22;69411;45.656;11.740;2024-02-21T11:16:09;17.50;46.60
64817;DHT22;69411;45.656;11.740;2024-02-21T11:18:39;17.60;46.90
64817;DHT22;69411;45.656;11.740;2024-02-21T11:21:05;17.70;43.40
64817;DHT22;69411;45.656;11.740;2024-02-21T11:23:31;17.70;46.10
64817;DHT22;69411;45.656;11.740;2024-02-21T11:26:07;17.80;45.50
64817;DHT22;69411;45.656;11.740;2024-02-21T11:28:34;17.80;45.70
64817;DHT22;69411;45.656;11.740;2024-02-21T11:31:11;17.70;44.90
64817;DHT22;69411;45.656;11.740;2024-02-21T11:33:40;17.70;42.90
64817;DHT22;69411;45.656;11.740;2024-02-21T11:36:08;17.50;44.40
64817;DHT22;69411;45.656;11.740;2024-02-21T11:38:35;17.50;44.60
64817;DHT22;69411;45.656;11.740;2024-02-21T11:41:01;17.50;45.20
64817;DHT22;69411;45.656;11.740;2024-02-21T11:43:27;17.50;45.50
64817;DHT22;69411;45.656;11.740;2024-02-21T11:46:01;17.50;45.00
64817;DHT22;69411;45.656;11.740;2024-02-21T11:48:30;17.50;45.60
64817;DHT22;69411;45.656;11.740;2024-02-21T11:51:00;17.40;45.50
64817;DHT22;69411;45.656;11.740;2024-02-21T11:53:29;17.50;45.60
64817;DHT22;69411;45.656;11.740;2024-02-21T11:55:56;17.50;46.30
64817;DHT22;69411;45.656;11.740;2024-02-21T11:58:22;17.60;46.40
64817;DHT22;69411;45.656;11.740;2024-02-21T12:00:49;17.60;44.00
64817;DHT22;69411;45.656;11.740;2024-02-21T12:03:15;17.60;44.90
64817;DHT22;69411;45.656;11.740;2024-02-21T12:05:42;17.50;43.60
64817;DHT22;69411;45.656;11.740;2024-02-21T12:08:08;17.60;44.90
64817;DHT22;69411;45.656;11.740;2024-02-21T12:10:35;17.60;45.40
64817;DHT22;69411;45.656;11.740;2024-02-21T12:13:08;17.60;45.40
64817;DHT22;69411;45.656;11.740;2024-02-21T12:18:05;17.60;45.80
64817;DHT22;69411;45.656;11.740;2024-02-21T12:20:31;17.70;46.60
64817;DHT22;69411;45.656;11.740;2024-02-21T12:23:01;17.70;47.10
64817;DHT22;69411;45.656;11.740;2024-02-21T12:25:29;17.80;47.30
64817;DHT22;69411;45.656;11.740;2024-02-21T12:27:55;17.80;47.20
64817;DHT22;69411;45.656;11.740;2024-02-21T12:30:21;17.80;47.90
64817;DHT22;69411;45.656;11.740;2024-02-21T12:32:52;17.80;48.20
64817;DHT22;69411;45.656;11.740;2024-02-21T12:35:18;17.80;47.80
64817;DHT22;69411;45.656;11.740;2024-02-21T12:37:44;17.80;48.10
64817;DHT22;69411;45.656;11.740;2024-02-21T12:40:11;17.80;47.70
64817;DHT22;69411;45.656;11.740;2024-02-21T12:42:41;17.80;48.70
64817;DHT22;69411;45.656;11.740;2024-02-21T12:45:08;17.90;48.90
64817;DHT22;69411;45.656;11.740;2024-02-21T12:47:36;17.90;48.80
64817;DHT22;69411;45.656;11.740;2024-02-21T12:50:03;17.90;49.60
64817;DHT22;69411;45.656;11.740;2024-02-21T12:52:33;17.90;48.70
64817;DHT22;69411;45.656;11.740;2024-02-21T12:54:59;17.90;49.10
64817;DHT22;69411;45.656;11.740;2024-02-21T12:57:25;17.90;49.10
64817;DHT22;69411;45.656;11.740;2024-02-21T12:59:52;17.90;48.80
64817;DHT22;69411;45.656;11.740;2024-02-21T13:02:21;17.90;49.30
64817;DHT22;69411;45.656;11.740;2024-02-21T13:04:47;17.90;48.90
64817;DHT22;69411;45.656;11.740;2024-02-21T13:07:13;17.90;48.80
64817;DHT22;69411;45.656;11.740;2024-02-21T13:09:39;17.90;48.20
64817;DHT22;69411;45.656;11.740;2024-02-21T13:12:06;17.90;48.50
64817;DHT22;69411;45.656;11.740;2024-02-21T13:14:33;17.80;47.00
64817;DHT22;69411;45.656;11.740;2024-02-21T13:17:00;17.70;48.30
64817;DHT22;69411;45.656;11.740;2024-02-21T13:19:26;17.70;48.80
64817;DHT22;69411;45.656;11.740;2024-02-21T13:21:52;17.80;48.30
64817;DHT22;69411;45.656;11.740;2024-02-21T13:24:18;17.80;48.70
64817;DHT22;69411;45.656;11.740;2024-02-21T13:26:44;17.80;48.80
64817;DHT22;69411;45.656;11.740;2024-02-21T13:29:11;17.70;48.30
64817;DHT22;69411;45.656;11.740;2024-02-21T13:31:37;17.60;47.30
64817;DHT22;69411;45.656;11.740;2024-02-21T13:34:03;17.50;48.50
64817;DHT22;69411;45.656;11.740;2024-02-21T13:36:29;17.50;48.60
64817;DHT22;69411;45.656;11.740;2024-02-21T13:38:55;17.40;48.80
64817;DHT22;69411;45.656;11.740;2024-02-21T13:41:21;17.40;49.00
64817;DHT22;69411;45.656;11.740;2024-02-21T13:43:48;17.40;49.20
64817;DHT22;69411;45.656;11.740;2024-02-21T13:46:14;17.40;48.60
64817;DHT22;69411;45.656;11.740;2024-02-21T13:48:40;17.40;49.70
64817;DHT22;69411;45.656;11.740;2024-02-21T13:51:07;17.40;49.60
64817;DHT22;69411;45.656;11.740;2024-02-21T13:53:33;17.40;49.30
64817;DHT22;69411;45.656;11.740;2024-02-21T13:56:00;17.40;49.60
64817;DHT22;69411;45.656;11.740;2024-02-21T13:58:26;17.40;49.50
64817;DHT22;69411;45.656;11.740;2024-02-21T14:00:52;17.50;49.50
64817;DHT22;69411;45.656;11.740;2024-02-21T14:03:19;17.50;49.20
64817;DHT22;69411;45.656;11.740;2024-02-21T14:05:46;17.50;48.80
64817;DHT22;69411;45.656;11.740;2024-02-21T14:08:14;17.40;49.20
64817;DHT22;69411;45.656;11.740;2024-02-21T14:10:45;17.40;49.50
64817;DHT22;69411;45.656;11.740;2024-02-21T14:13:13;17.40;49.80
64817;DHT22;69411;45.656;11.740;2024-02-21T14:15:41;17.40;49.10
64817;DHT22;69411;45.656;11.740;2024-02-21T14:18:10;17.40;49.30
64817;DHT22;69411;45.656;11.740;2024-02-21T14:20:36;17.40;49.90
64817;DHT22;69411;45.656;11.740;2024-02-21T14:23:02;17.40;49.90
64817;DHT22;69411;45.656;11.740;2024-02-21T14:25:28;17.40;50.10
64817;DHT22;69411;45.656;11.740;2024-02-21T14:27:54;17.40;49.60
64817;DHT22;69411;45.656;11.740;2024-02-21T14:30:24;17.40;49.80
64817;DHT22;69411;45.656;11.740;2024-02-21T14:32:51;17.40;50.30
64817;DHT22;69411;45.656;11.740;2024-02-21T14:35:17;17.40;50.30
64817;DHT22;69411;45.656;11.740;2024-02-21T14:37:43;17.40;50.30
64817;DHT22;69411;45.656;11.740;2024-02-21T14:40:09;17.40;50.70
64817;DHT22;69411;45.656;11.740;2024-02-21T14:42:36;17.30;50.60
64817;DHT22;69411;45.656;11.740;2024-02-21T14:45:02;17.20;51.10
64817;DHT22;69411;45.656;11.740;2024-02-21T14:47:37;17.20;50.80
64817;DHT22;69411;45.656;11.740;2024-02-21T14:50:06;17.10;51.10
64817;DHT22;69411;45.656;11.740;2024-02-21T14:52:34;17.00;50.60
64817;DHT22;69411;45.656;11.740;2024-02-21T14:55:02;17.10;51.20
64817;DHT22;69411;45.656;11.740;2024-02-21T14:57:28;17.00;51.30
64817;DHT22;69411;45.656;11.740;2024-02-21T14:59:55;17.00;51.30
64817;DHT22;69411;45.656;11.740;2024-02-21T15:02:26;17.00;51.80
64817;DHT22;69411;45.656;11.740;2024-02-21T15:04:53;16.90;52.30
64817;DHT22;69411;45.656;11.740;2024-02-21T15:07:20;16.90;52.00
64817;DHT22;69411;45.656;11.740;2024-02-21T15:09:50;16.90;52.30
64817;DHT22;69411;45.656;11.740;2024-02-21T15:12:17;16.80;52.90
64817;DHT22;69411;45.656;11.740;2024-02-21T15:14:43;16.70;53.00
64817;DHT22;69411;45.656;11.740;2024-02-21T15:17:10;16.60;53.10
64817;DHT22;69411;45.656;11.740;2024-02-21T15:19:39;16.50;52.90
64817;DHT22;69411;45.656;11.740;2024-02-21T15:22:11;16.50;52.50
64817;DHT22;69411;45.656;11.740;2024-02-21T15:24:46;16.40;52.60
64817;DHT22;69411;45.656;11.740;2024-02-21T15:27:14;16.40;53.20
64817;DHT22;69411;45.656;11.740;2024-02-21T15:29:41;16.30;53.10
64817;DHT22;69411;45.656;11.740;2024-02-21T15:32:07;16.30;52.70
64817;DHT22;69411;45.656;11.740;2024-02-21T15:34:41;16.30;52.60
64817;DHT22;69411;45.656;11.740;2024-02-21T15:37:07;16.30;52.90